Time;durP1;ratioP1;P1;durP2;ratioP2;P2;SDS_P1;SDS_P2;PMS_P1;PMS_P2;Temp;Humidity;BMP_temperature;BMP_pressure;BME280_temperature;BME280_humidity;BME280_pressure;Samples;Min_cycle;Max_cycle;Signal;HPM_P1;HPM_P2
2022/09/01 00:01:05;;;;;;;5.70;1.90;;;;;;;15.18;56.31;100574.73;106103;1270;109113;-77
2022/09/01 00:03:38;;;;;;;5.10;2.20;;;;;;;15.17;56.47;100571.31;105990;1272;108584;-76
2022/09/01 00:06:10;;;;;;;3.90;1.70;;;;;;;15.13;56.47;100571.30;105943;1271;139465;-76
2022/09/01 00:08:42;;;;;;;3.80;1.90;;;;;;;15.06;56.49;100568.93;106114;1271;97708;-76
2022/09/01 00:11:14;;;;;;;5.60;1.80;;;;;;;15.03;56.84;100567.70;105942;1271;138363;-76
2022/09/01 00:13:47;;;;;;;3.20;1.70;;;;;;;15.01;56.77;100567.95;106074;1271;107956;-77
2022/09/01 00:16:20;;;;;;;2.80;1.50;;;;;;;14.96;57.03;100566.98;105952;1271;138968;-76
2022/09/01 00:18:54;;;;;;;3.20;1.30;;;;;;;14.93;57.20;100566.95;106122;1271;97939;-76
2022/09/01 00:21:29;;;;;;;2.10;1.30;;;;;;;14.92;57.39;100569.65;106072;1271;97688;-76
2022/09/01 00:24:02;;;;;;;2.40;1.30;;;;;;;14.90;57.49;100568.84;105997;1271;138966;-77
2022/09/01 00:26:34;;;;;;;4.30;1.10;;;;;;;14.87;57.44;100569.49;106138;1271;108815;-77
2022/09/01 00:29:06;;;;;;;3.10;1.40;;;;;;;14.83;57.56;100570.35;105970;1271;138530;-77
2022/09/01 00:31:39;;;;;;;3.00;1.40;;;;;;;14.79;57.60;100570.55;106181;1270;97948;-76
2022/09/01 00:34:11;;;;;;;2.50;1.10;;;;;;;14.73;57.78;100570.63;106186;1271;97855;-76
2022/09/01 00:36:43;;;;;;;4.90;1.30;;;;;;;14.69;57.82;100569.92;106116;1271;112460;-76
2022/09/01 00:39:18;;;;;;;2.70;1.20;;;;;;;14.65;57.96;100566.10;106152;1271;109065;-77
2022/09/01 00:41:50;;;;;;;3.50;1.30;;;;;;;14.60;58.02;100567.54;105995;1271;139578;-77
2022/09/01 00:44:25;;;;;;;4.30;1.40;;;;;;;14.54;58.11;100565.69;106030;1271;97976;-76
2022/09/01 00:47:00;;;;;;;2.20;1.00;;;;;;;14.47;58.15;100565.62;106092;1271;138586;-77
2022/09/01 00:49:36;;;;;;;4.20;1.20;;;;;;;14.42;58.22;100569.68;106111;1271;112425;-77
2022/09/01 00:52:13;;;;;;;3.50;1.40;;;;;;;14.37;58.39;100565.86;106356;1271;108801;-77
2022/09/01 00:54:49;;;;;;;2.50;1.40;;;;;;;14.30;58.61;100561.11;106129;1271;108884;-77
2022/09/01 00:57:21;;;;;;;3.10;1.60;;;;;;;14.23;58.62;100564.88;106092;1271;97846;-77
2022/09/01 00:59:57;;;;;;;5.40;1.30;;;;;;;14.18;58.74;100561.41;106013;1271;138408;-77
2022/09/01 01:02:30;;;;;;;4.20;1.70;;;;;;;14.12;58.94;100561.33;106265;1270;111511;-77
2022/09/01 01:05:02;;;;;;;6.60;1.40;;;;;;;14.08;59.12;100564.66;106117;1270;138733;-77
2022/09/01 01:07:37;;;;;;;2.90;1.30;;;;;;;14.05;59.16;100563.02;106176;1270;108332;-77
2022/09/01 01:10:11;;;;;;;4.10;1.50;;;;;;;14.01;59.37;100566.52;106154;1270;97679;-76
2022/09/01 01:12:44;;;;;;;4.30;1.30;;;;;;;14.00;59.60;100567.77;106123;1270;97851;-76
2022/09/01 01:15:17;;;;;;;4.10;1.10;;;;;;;13.98;59.61;100564.18;106086;1271;112296;-76
2022/09/01 01:17:49;;;;;;;3.40;1.30;;;;;;;13.96;59.77;100566.89;106076;1270;138581;-77
2022/09/01 01:23:21;;;;;;;3.50;1.30;;;;;;;13.91;59.92;100569.38;106011;1271;138601;-77
2022/09/01 01:25:57;;;;;;;3.80;1.10;;;;;;;13.87;60.05;100568.14;106061;1273;97860;-77
2022/09/01 01:28:34;;;;;;;2.00;1.20;;;;;;;13.82;60.12;100568.66;106087;1270;140602;-76
2022/09/01 01:31:10;;;;;;;3.90;1.00;;;;;;;13.78;60.13;100570.03;106116;1271;109322;-76
2022/09/01 01:33:45;;;;;;;2.50;1.30;;;;;;;13.75;60.32;100569.83;106291;1270;108773;-76
2022/09/01 01:36:23;;;;;;;3.00;1.20;;;;;;;13.70;60.32;100560.94;107595;1271;138735;-77
2022/09/01 01:39:01;;;;;;;2.30;1.10;;;;;;;13.68;60.55;100562.45;107789;1270;96246;-77
2022/09/01 01:41:36;;;;;;;3.60;1.20;;;;;;;13.64;60.43;100561.04;106180;1270;139489;-77
2022/09/01 01:44:08;;;;;;;2.80;1.00;;;;;;;13.58;60.50;100562.47;106129;1271;108921;-76
2022/09/01 01:46:43;;;;;;;3.70;1.20;;;;;;;13.54;60.69;100563.01;106143;1270;138932;-76
2022/09/01 01:49:18;;;;;;;3.40;1.00;;;;;;;13.49;60.69;100563.03;106204;1271;99270;-76
2022/09/01 01:51:54;;;;;;;2.20;0.90;;;;;;;13.42;60.91;100563.27;107850;1270;96254;-77
2022/09/01 01:54:31;;;;;;;3.90;1.30;;;;;;;13.35;61.02;100564.41;107329;1270;139522;-77
2022/09/01 01:57:04;;;;;;;2.00;1.20;;;;;;;13.28;61.12;100559.64;106241;1270;109317;-76
2022/09/01 01:59:37;;;;;;;3.20;1.20;;;;;;;13.23;61.38;100561.20;106114;1270;139606;-76
2022/09/01 02:02:11;;;;;;;1.50;1.00;;;;;;;13.20;61.50;100564.48;106128;1271;97839;-76
2022/09/01 02:04:43;;;;;;;4.40;1.20;;;;;;;13.18;61.72;100570.13;105952;1271;138747;-75
2022/09/01 02:07:15;;;;;;;2.20;1.10;;;;;;;13.14;61.75;100566.92;106027;1271;112540;-76
2022/09/01 02:09:47;;;;;;;4.60;1.00;;;;;;;13.10;61.92;100563.24;105991;1271;108878;-76
2022/09/01 02:12:20;;;;;;;3.20;1.10;;;;;;;13.08;62.10;100561.22;105959;1271;140666;-76
2022/09/01 02:14:53;;;;;;;3.50;1.30;;;;;;;13.06;62.11;100557.10;106059;1271;97928;-76
2022/09/01 02:17:26;;;;;;;3.50;1.50;;;;;;;13.03;62.17;100554.45;105991;1271;138263;-76
2022/09/01 02:19:58;;;;;;;3.20;1.40;;;;;;;12.97;62.41;100554.98;106074;1271;112508;-76
2022/09/01 02:22:30;;;;;;;3.60;1.30;;;;;;;12.93;62.51;100553.23;106020;1271;138700;-77
2022/09/01 02:25:02;;;;;;;2.00;1.40;;;;;;;12.90;62.80;100551.93;106065;1271;110298;-76
2022/09/01 02:27:35;;;;;;;3.20;1.30;;;;;;;12.89;62.66;100555.13;106044;1271;98062;-76
2022/09/01 02:30:11;;;;;;;1.50;1.00;;;;;;;12.86;62.97;100552.64;105894;1271;139598;-76
2022/09/01 02:32:43;;;;;;;3.10;1.30;;;;;;;12.82;62.87;100552.42;107571;1271;111399;-77
2022/09/01 02:35:15;;;;;;;3.20;1.30;;;;;;;12.78;62.92;100549.77;107628;1271;138536;-76
2022/09/01 02:37:55;;;;;;;2.10;1.20;;;;;;;12.77;63.09;100550.19;107050;1271;107763;-76
2022/09/01 02:40:29;;;;;;;3.20;1.10;;;;;;;12.71;63.17;100552.61;105951;1271;138763;-76
2022/09/01 02:43:02;;;;;;;1.90;1.30;;;;;;;12.68;63.17;100554.13;106138;1271;97696;-76
2022/09/01 02:45:34;;;;;;;2.30;1.20;;;;;;;12.64;63.25;100554.48;106218;1271;112577;-75
2022/09/01 02:48:08;;;;;;;2.90;1.30;;;;;;;12.61;63.32;100556.85;105908;1273;138734;-76
2022/09/01 02:50:42;;;;;;;3.70;1.20;;;;;;;12.59;63.38;100555.52;105951;1271;107686;-76
2022/09/01 02:53:14;;;;;;;4.10;1.30;;;;;;;12.55;63.49;100561.05;105868;1271;138624;-76
2022/09/01 02:55:47;;;;;;;2.10;1.30;;;;;;;12.49;63.55;100558.50;106224;1271;97838;-76
2022/09/01 02:58:20;;;;;;;2.60;1.40;;;;;;;12.42;63.72;100564.14;106044;1271;138486;-75
2022/09/01 03:00:57;;;;;;;2.80;1.00;;;;;;;12.38;63.77;100568.98;105940;1273;109174;-76
2022/09/01 03:03:29;;;;;;;3.60;1.30;;;;;;;12.33;63.94;100564.80;106199;1270;107568;-77
2022/09/01 03:06:01;;;;;;;5.70;1.40;;;;;;;12.26;63.99;100559.80;105942;1271;138590;-76
2022/09/01 03:08:38;;;;;;;2.90;1.50;;;;;;;12.23;64.10;100562.37;106162;1271;98062;-76
2022/09/01 03:11:11;;;;;;;8.40;1.60;;;;;;;12.20;64.30;100563.15;106074;1270;138531;-76
2022/09/01 03:13:44;;;;;;;7.20;1.90;;;;;;;12.18;64.53;100558.52;106105;1271;108829;-76
2022/09/01 03:16:17;;;;;;;5.00;1.70;;;;;;;12.16;64.56;100559.98;106182;1270;108959;-76
2022/09/01 03:18:50;;;;;;;7.10;1.80;;;;;;;12.16;64.65;100559.79;106132;1271;96442;-76
2022/09/01 03:21:23;;;;;;;9.40;1.50;;;;;;;12.16;64.92;100563.10;106186;1271;98178;-75
2022/09/01 03:23:56;;;;;;;6.30;1.80;;;;;;;12.18;64.91;100561.84;106068;1270;138547;-75
2022/09/01 03:26:29;;;;;;;4.50;1.70;;;;;;;12.19;64.93;100566.52;106219;1270;109921;-76
2022/09/01 03:29:03;;;;;;;13.10;2.10;;;;;;;12.18;64.99;100566.69;106124;1270;138764;-76
2022/09/01 03:31:35;;;;;;;29.90;3.10;;;;;;;12.18;64.96;100565.64;106074;1271;97924;-76
2022/09/01 03:34:09;;;;;;;16.00;2.60;;;;;;;12.19;65.04;100575.21;106154;1270;97917;-76
2022/09/01 03:36:49;;;;;;;14.40;2.60;;;;;;;12.18;64.99;100574.70;106075;1271;111427;-76
2022/09/01 03:39:32;;;;;;;11.70;2.30;;;;;;;12.17;65.04;100574.56;106152;1270;108884;-76
2022/09/01 03:42:07;;;;;;;7.90;1.90;;;;;;;12.16;65.14;100578.10;106134;1270;139104;-76
2022/09/01 03:44:41;;;;;;;4.40;1.80;;;;;;;12.14;65.06;100577.46;106039;1270;97840;-76
2022/09/01 03:47:14;;;;;;;6.70;1.90;;;;;;;12.13;65.16;100575.08;105930;1271;139656;-76
2022/09/01 03:49:48;;;;;;;4.00;1.50;;;;;;;12.10;65.02;100576.91;106161;1271;112436;-75
2022/09/01 03:52:22;;;;;;;5.00;1.80;;;;;;;12.08;65.07;100571.94;105911;1271;138869;-75
2022/09/01 03:54:54;;;;;;;4.60;1.80;;;;;;;12.06;65.25;100566.94;107672;1271;108888;-77
2022/09/01 03:57:28;;;;;;;5.10;1.90;;;;;;;12.05;65.30;100566.61;106820;1271;97828;-76
2022/09/01 04:00:19;;;;;;;6.50;1.90;;;;;;;12.05;65.33;100563.66;106073;1271;138563;-75
2022/09/01 04:02:56;;;;;;;8.00;2.20;;;;;;;12.04;65.41;100562.29;106055;1273;112443;-76
2022/09/01 04:05:32;;;;;;;9.60;2.10;;;;;;;12.03;65.36;100564.24;106025;1271;138649;-76
2022/09/01 04:08:09;;;;;;;9.50;2.50;;;;;;;12.02;65.34;100564.44;106169;1271;107404;-77
2022/09/01 04:10:48;;;;;;;11.40;2.10;;;;;;;12.06;65.49;100566.95;105957;1271;139393;-77
2022/09/01 04:13:29;;;;;;;10.70;2.10;;;;;;;12.07;65.51;100564.99;107304;1271;97829;-76
2022/09/01 04:16:01;;;;;;;9.10;2.00;;;;;;;12.08;65.41;100565.13;107727;1271;111478;-77
2022/09/01 04:18:33;;;;;;;8.00;1.90;;;;;;;12.08;65.40;100569.65;106697;1271;138591;-76
2022/09/01 04:21:07;;;;;;;5.10;1.80;;;;;;;12.10;65.49;100569.75;106056;1272;108978;-76
2022/09/01 04:23:39;;;;;;;9.40;1.80;;;;;;;12.14;65.54;100565.08;105984;1271;138892;-77
2022/09/01 04:26:14;;;;;;;5.60;1.70;;;;;;;12.35;65.58;100568.55;106067;1271;97736;-76
2022/09/01 04:28:49;;;;;;;3.90;1.70;;;;;;;12.73;65.46;100565.84;105947;1271;139646;-76
2022/09/01 04:31:22;;;;;;;7.50;2.00;;;;;;;13.16;65.02;100561.65;106081;1273;108922;-77
2022/09/01 04:33:55;;;;;;;13.10;2.30;;;;;;;13.61;64.36;100563.56;106133;1272;109250;-76
2022/09/01 04:36:32;;;;;;;6.90;2.40;;;;;;;14.14;63.68;100564.04;105875;1273;138804;-76
2022/09/01 04:39:08;;;;;;;10.10;2.10;;;;;;;14.75;62.84;100558.08;106702;1273;96368;-76
2022/09/01 04:41:44;;;;;;;15.70;2.00;;;;;;;15.35;61.70;100560.64;105921;1273;138747;-75
2022/09/01 04:44:17;;;;;;;14.30;2.50;;;;;;;15.98;60.51;100563.06;106094;1271;107806;-76
2022/09/01 04:46:50;;;;;;;13.00;2.50;;;;;;;16.65;59.45;100554.91;105990;1271;138213;-76
2022/09/01 04:49:25;;;;;;;17.20;3.30;;;;;;;17.37;58.20;100560.34;106144;1271;97862;-76
2022/09/01 04:51:57;;;;;;;18.60;2.90;;;;;;;18.07;56.88;100560.43;106095;1272;98237;-76
2022/09/01 04:54:33;;;;;;;16.70;3.40;;;;;;;18.81;55.93;100561.66;106015;1271;137840;-76
2022/09/01 04:57:05;;;;;;;;;;;;;;;19.63;54.39;100559.65;106248;1271;107757;-77
2022/09/01 04:59:41;;;;;;;14.80;2.70;;;;;;;20.29;53.37;100551.92;106067;1271;124270;-77
2022/09/01 05:02:13;;;;;;;12.30;2.60;;;;;;;20.90;51.69;100548.99;105986;1272;97838;-76
2022/09/01 05:04:46;;;;;;;16.90;3.20;;;;;;;21.44;50.51;100551.35;106035;1273;138402;-76
2022/09/01 05:07:18;;;;;;;14.60;3.90;;;;;;;21.90;49.04;100547.77;106144;1273;111425;-76
2022/09/01 05:09:53;;;;;;;19.60;3.50;;;;;;;22.40;48.15;100547.55;106181;1272;108056;-77
2022/09/01 05:12:52;;;;;;;22.80;3.10;;;;;;;23.07;46.82;100542.46;106111;1271;108916;-77
2022/09/01 05:15:24;;;;;;;10.40;2.60;;;;;;;23.61;45.34;100545.20;106110;1271;97830;-76
2022/09/01 05:18:01;;;;;;;8.80;2.60;;;;;;;24.19;44.24;100540.54;105991;1271;137881;-76
2022/09/01 05:20:34;;;;;;;17.20;3.30;;;;;;;24.75;42.99;100539.17;106081;1272;112530;-76
2022/09/01 05:23:06;;;;;;;16.50;3.30;;;;;;;25.35;41.99;100541.14;106072;1271;138137;-76
2022/09/01 05:25:42;;;;;;;24.20;3.30;;;;;;;25.89;41.29;100536.98;106126;1271;107467;-76
2022/09/01 05:28:17;;;;;;;25.80;4.10;;;;;;;26.56;40.47;100536.69;107697;1271;96175;-77
2022/09/01 05:30:52;;;;;;;22.30;3.10;;;;;;;27.16;39.42;100538.55;107777;1271;96103;-77
2022/09/01 05:33:24;;;;;;;23.20;3.10;;;;;;;27.64;38.61;100539.61;107765;1271;112438;-77
2022/09/01 05:36:00;;;;;;;15.60;2.90;;;;;;;28.20;38.07;100532.66;107536;1271;138762;-77
2022/09/01 05:38:32;;;;;;;20.90;2.70;;;;;;;28.78;37.27;100533.38;106202;1271;108729;-76
2022/09/01 05:41:07;;;;;;;17.20;3.00;;;;;;;29.39;36.45;100533.34;105945;1271;139977;-77
2022/09/01 05:43:44;;;;;;;14.10;2.50;;;;;;;29.93;35.72;100529.68;106224;1270;97925;-77
2022/09/01 05:46:19;;;;;;;11.30;2.30;;;;;;;30.49;35.07;100525.67;106167;1270;112616;-77
2022/09/01 05:48:54;;;;;;;10.90;2.30;;;;;;;30.90;34.41;100525.17;106234;1271;107861;-77
2022/09/01 05:51:29;;;;;;;16.40;2.20;;;;;;;31.22;33.36;100525.42;106062;1270;109792;-71
2022/09/01 05:54:17;;;;;;;16.70;2.50;;;;;;;31.59;32.92;100527.63;106078;1271;138199;-71
2022/09/01 05:56:52;;;;;;;12.60;2.10;;;;;;;31.90;32.11;100530.69;106108;1271;97947;-70
2022/09/01 05:59:30;;;;;;;9.30;2.10;;;;;;;32.14;31.48;100521.82;106071;1270;137840;-70
2022/09/01 06:02:07;;;;;;;11.70;2.70;;;;;;;32.46;30.91;100524.38;106209;1271;109124;-71
2022/09/01 06:04:42;;;;;;;13.30;2.40;;;;;;;32.85;30.44;100522.46;105998;1271;138188;-70
2022/09/01 06:07:19;;;;;;;20.20;2.60;;;;;;;33.16;29.76;100524.42;106084;1271;97883;-70
2022/09/01 06:09:58;;;;;;;14.60;2.80;;;;;;;33.67;29.35;100526.27;106274;1271;97706;-70
2022/09/01 06:12:30;;;;;;;19.10;3.00;;;;;;;34.00;28.56;100518.40;106026;1271;138938;-70
2022/09/01 06:15:06;;;;;;;14.70;3.00;;;;;;;34.28;27.84;100519.38;106250;1270;108827;-70
2022/09/01 06:17:38;;;;;;;16.50;2.60;;;;;;;34.48;27.39;100518.25;106056;1270;138004;-71
2022/09/01 06:20:11;;;;;;;13.40;2.50;;;;;;;34.60;26.78;100518.66;106186;1270;97832;-71
2022/09/01 06:22:46;;;;;;;18.90;3.20;;;;;;;34.63;26.65;100522.13;106209;1270;138020;-70
2022/09/01 06:25:20;;;;;;;15.40;2.60;;;;;;;34.82;26.70;100516.09;106314;1270;111369;-71
2022/09/01 06:27:52;;;;;;;15.50;2.30;;;;;;;35.12;26.26;100527.01;106284;1270;107948;-70
2022/09/01 06:30:25;;;;;;;11.40;2.20;;;;;;;35.44;25.88;100527.60;106089;1271;138234;-72
2022/09/01 06:33:08;;;;;;;11.10;2.10;;;;;;;35.79;25.55;100526.96;106213;1270;97860;-72
2022/09/01 06:35:43;;;;;;;13.50;1.60;;;;;;;35.84;24.94;100532.07;106034;1271;137897;-72
2022/09/01 06:38:18;;;;;;;5.70;1.40;;;;;;;36.04;24.84;100530.05;106194;1271;112657;-71
2022/09/01 06:40:59;;;;;;;5.00;1.30;;;;;;;36.39;24.37;100528.42;106151;1270;137999;-71
2022/09/01 06:43:32;;;;;;;4.00;0.90;;;;;;;36.71;24.22;100526.40;106140;1271;109052;-71
2022/09/01 06:46:04;;;;;;;4.00;1.00;;;;;;;36.96;23.66;100531.25;106128;1271;97887;-71
2022/09/01 06:48:37;;;;;;;3.30;0.60;;;;;;;37.08;23.26;100532.12;106094;1271;138252;-71
2022/09/01 06:51:13;;;;;;;4.00;0.90;;;;;;;37.31;22.88;100534.73;106211;1271;112481;-71
2022/09/01 06:53:55;;;;;;;1.70;0.80;;;;;;;37.68;22.79;100527.43;106284;1268;137890;-71
2022/09/01 06:56:32;;;;;;;1.90;0.70;;;;;;;38.07;22.46;100531.94;106263;1270;108307;-71
2022/09/01 06:59:14;;;;;;;2.80;1.10;;;;;;;38.35;22.18;100533.08;106014;1271;138061;-71
2022/09/01 07:01:53;;;;;;;1.80;0.60;;;;;;;38.59;22.08;100530.38;106106;1271;97725;-71
2022/09/01 07:04:47;;;;;;;2.50;0.70;;;;;;;38.82;21.80;100530.67;106086;1270;137951;-71
2022/09/01 07:07:21;;;;;;;2.60;0.70;;;;;;;39.10;21.92;100527.31;106281;1269;107887;-71
2022/09/01 07:10:32;;;;;;;3.10;0.80;;;;;;;39.34;21.63;100530.54;107579;1271;139250;-71
2022/09/01 07:13:21;;;;;;;1.90;0.80;;;;;;;39.30;21.47;100531.37;107644;1271;96285;-71
2022/09/01 07:15:57;;;;;;;2.10;0.80;;;;;;;39.25;20.72;100524.73;106567;1270;1576458;-72
2022/09/01 07:18:51;;;;;;;1.90;0.50;;;;;;;38.80;20.49;100530.98;107783;1271;112603;-71
2022/09/01 07:21:32;;;;;;;0.80;0.40;;;;;;;38.35;20.53;100531.36;107637;1271;108848;-71
2022/09/01 07:24:24;;;;;;;1.50;0.40;;;;;;;38.01;20.86;100533.36;105896;1273;138074;-71
2022/09/01 07:27:26;;;;;;;2.90;0.40;;;;;;;37.94;20.84;100532.30;106051;1273;97985;-71
2022/09/01 07:30:10;;;;;;;3.30;0.60;;;;;;;37.65;20.90;100529.45;106948;1271;138159;-71
2022/09/01 07:32:43;;;;;;;3.60;0.90;;;;;;;37.75;21.13;100526.98;106112;1273;111557;-70
2022/09/01 07:35:21;;;;;;;1.80;0.60;;;;;;;37.89;20.81;100529.48;106018;1270;138223;-71
2022/09/01 07:37:54;;;;;;;8.50;1.30;;;;;;;37.91;20.83;100532.65;106076;1273;108390;-71
2022/09/01 07:40:46;;;;;;;1.90;0.70;;;;;;;38.19;20.59;100535.58;105919;1272;138516;-71
2022/09/01 07:44:09;;;;;;;2.90;0.50;;;;;;;38.31;20.56;100536.45;106215;1271;97931;-71
2022/09/01 07:46:54;;;;;;;2.10;0.50;;;;;;;38.34;20.46;100534.78;106094;1271;138484;-71
2022/09/01 07:49:46;;;;;;;2.90;0.90;;;;;;;38.28;20.19;100535.30;106131;1273;108881;-72
2022/09/01 07:52:42;;;;;;;0.60;0.40;;;;;;;38.11;20.29;100533.91;105987;1272;138637;-71
2022/09/01 07:55:17;;;;;;;4.90;0.70;;;;;;;37.99;20.67;100533.50;106256;1270;97717;-72
2022/09/01 07:57:50;;;;;;;3.90;0.60;;;;;;;38.13;20.72;100537.30;107235;1271;97816;-71
2022/09/01 08:00:23;;;;;;;3.00;0.50;;;;;;;38.31;20.63;100538.08;106001;1271;137978;-71
2022/09/01 08:03:01;;;;;;;2.40;0.50;;;;;;;38.30;20.12;100543.04;106105;1271;108391;-71
2022/09/01 08:05:34;;;;;;;2.50;0.80;;;;;;;38.13;20.32;100540.98;105959;1271;138360;-71
2022/09/01 08:08:07;;;;;;;2.50;0.70;;;;;;;37.82;20.40;100539.17;106102;1270;97713;-73
2022/09/01 08:10:59;;;;;;;1.60;0.50;;;;;;;37.78;20.92;100536.16;105881;1270;138433;-72
2022/09/01 08:13:39;;;;;;;1.00;0.40;;;;;;;37.16;20.39;100536.98;106059;1271;111482;-71
2022/09/01 08:16:14;;;;;;;2.90;0.70;;;;;;;36.25;20.73;100541.13;106187;1271;109287;-71
2022/09/01 08:18:49;;;;;;;1.60;0.70;;;;;;;35.61;21.15;100538.69;106985;1272;106013;-73
2022/09/01 08:21:34;;;;;;;1.10;0.50;;;;;;;34.59;21.30;100534.27;106314;1271;97959;-72
2022/09/01 08:24:08;;;;;;;3.10;0.70;;;;;;;33.69;21.85;100534.30;106077;1271;138541;-70
2022/09/01 08:26:40;;;;;;;2.80;0.50;;;;;;;32.76;21.98;100536.40;106159;1271;113004;-72
2022/09/01 08:29:12;;;;;;;2.20;0.40;;;;;;;31.60;22.91;100545.27;105966;1271;137942;-71
2022/09/01 08:31:47;;;;;;;2.50;0.60;;;;;;;30.51;23.99;100542.27;106183;1271;107821;-71
2022/09/01 08:34:20;;;;;;;2.90;0.90;;;;;;;29.47;24.67;100545.95;106118;1271;138146;-71
2022/09/01 08:36:52;;;;;;;1.30;0.80;;;;;;;28.44;25.59;100550.05;106157;1270;97828;-71
2022/09/01 08:39:25;;;;;;;2.60;0.60;;;;;;;27.63;26.74;100553.98;106229;1271;112393;-72
2022/09/01 08:42:05;;;;;;;3.20;0.70;;;;;;;26.91;27.49;100552.58;106100;1270;138311;-70
2022/09/01 08:44:46;;;;;;;1.40;0.50;;;;;;;26.26;28.15;100562.31;106283;1270;108877;-71
2022/09/01 08:47:20;;;;;;;3.30;0.70;;;;;;;25.70;28.76;100559.56;105982;1272;137903;-70
2022/09/01 08:50:11;;;;;;;5.50;0.90;;;;;;;25.70;30.06;100559.05;106289;1270;97940;-71
2022/09/01 08:53:10;;;;;;;2.20;0.70;;;;;;;26.03;30.45;100556.55;106177;1270;139097;-71
2022/09/01 08:55:46;;;;;;;3.90;0.60;;;;;;;26.48;30.13;100552.52;106290;1270;109184;-72
2022/09/01 08:58:19;;;;;;;9.70;0.70;;;;;;;27.14;30.41;100551.75;105879;1273;138122;-70
2022/09/01 09:01:20;;;;;;;6.20;0.90;;;;;;;27.75;29.83;100550.27;106038;1273;98301;-72
2022/09/01 09:04:07;;;;;;;2.60;0.70;;;;;;;28.33;29.86;100549.22;106172;1270;96467;-71
2022/09/01 09:06:47;;;;;;;1.60;0.60;;;;;;;29.12;28.91;100543.95;106116;1271;137854;-71
2022/09/01 09:09:20;;;;;;;1.80;0.60;;;;;;;29.79;28.10;100538.88;106207;1271;108737;-71
2022/09/01 09:12:25;;;;;;;0.60;0.50;;;;;;;30.43;28.19;100536.92;106026;1270;138757;-72
2022/09/01 09:15:11;;;;;;;2.00;0.60;;;;;;;30.73;27.04;100533.59;106159;1271;99402;-72
2022/09/01 09:17:49;;;;;;;2.50;0.60;;;;;;;30.74;26.40;100533.91;106044;1270;137966;-72
2022/09/01 09:20:30;;;;;;;1.40;0.60;;;;;;;31.11;26.59;100536.23;106143;1270;112426;-72
2022/09/01 09:23:18;;;;;;;2.40;0.70;;;;;;;31.05;26.65;100535.52;105983;1270;138735;-72
2022/09/01 09:25:50;;;;;;;2.90;0.50;;;;;;;30.67;26.19;100530.83;106149;1270;109788;-71
2022/09/01 09:28:22;;;;;;;1.70;0.50;;;;;;;30.02;25.99;100533.82;106180;1270;137970;-71
2022/09/01 09:31:27;;;;;;;2.60;0.80;;;;;;;29.46;26.63;100536.05;106279;1270;97849;-71
2022/09/01 09:34:01;;;;;;;3.40;0.50;;;;;;;28.88;26.81;100532.69;106320;1271;112455;-71
2022/09/01 09:36:36;;;;;;;1.30;0.60;;;;;;;28.49;27.02;100530.08;106158;1270;138681;-71
2022/09/01 09:39:12;;;;;;;2.20;0.50;;;;;;;28.08;27.27;100530.34;106214;1270;107650;-71
2022/09/01 09:42:01;;;;;;;0.70;0.30;;;;;;;27.79;27.92;100529.86;105942;1271;140019;-73
2022/09/01 09:44:35;;;;;;;0.60;0.40;;;;;;;27.70;28.37;100531.73;106277;1270;97918;-72
2022/09/01 09:47:09;;;;;;;2.30;0.50;;;;;;;27.78;29.10;100529.61;106055;1271;137955;-72
2022/09/01 09:50:15;;;;;;;1.70;0.70;;;;;;;28.00;29.34;100521.86;106156;1270;108862;-72
2022/09/01 09:52:48;;;;;;;4.90;0.40;;;;;;;28.40;28.97;100522.57;106033;1271;138527;-72
2022/09/01 09:55:27;;;;;;;2.40;0.60;;;;;;;28.50;28.72;100519.64;106272;1270;97834;-71
2022/09/01 09:58:01;;;;;;;1.00;0.30;;;;;;;28.47;28.23;100514.77;106340;1271;97829;-72
2022/09/01 10:00:35;;;;;;;1.50;0.60;;;;;;;28.23;28.03;100517.77;106526;1271;138025;-71
2022/09/01 10:03:10;;;;;;;3.20;0.70;;;;;;;27.93;28.09;100518.58;106258;1270;109267;-71
2022/09/01 10:05:47;;;;;;;1.00;0.30;;;;;;;27.93;28.87;100518.15;106093;1270;138160;-69
2022/09/01 10:08:43;;;;;;;0.60;0.30;;;;;;;28.22;28.70;100516.52;106060;1271;98450;-70
2022/09/01 10:11:31;;;;;;;3.40;0.90;;;;;;;28.78;28.63;100513.08;106107;1270;138152;-70
2022/09/01 10:14:17;;;;;;;1.50;0.30;;;;;;;29.26;27.83;100517.02;106327;1270;112067;-71
2022/09/01 10:17:15;;;;;;;0.50;0.20;;;;;;;29.47;27.08;100509.60;106261;1270;138052;-71
2022/09/01 10:19:53;;;;;;;0.50;0.20;;;;;;;29.43;27.08;100513.76;106535;1270;109166;-71
2022/09/01 10:22:26;;;;;;;0.30;0.30;;;;;;;29.57;26.87;100512.44;106095;1270;138502;-71
2022/09/01 10:24:59;;;;;;;2.20;0.20;;;;;;;29.68;27.23;100520.39;106112;1271;97923;-69
2022/09/01 10:27:35;;;;;;;1.10;0.30;;;;;;;29.84;26.85;100519.53;106393;1271;112344;-68
2022/09/01 10:30:13;;;;;;;1.00;0.30;;;;;;;30.04;26.53;100516.23;106158;1270;138824;-72
2022/09/01 10:32:52;;;;;;;1.40;0.50;;;;;;;29.97;26.18;100515.57;107792;1270;108941;-72
2022/09/01 10:35:30;;;;;;;1.90;0.40;;;;;;;29.83;26.47;100513.73;107664;1270;137961;-72
2022/09/01 10:38:08;;;;;;;1.70;0.30;;;;;;;29.84;26.19;100512.89;107791;1270;96139;-72
2022/09/01 10:40:47;;;;;;;1.50;0.50;;;;;;;29.85;26.14;100513.02;107666;1270;138000;-73
2022/09/01 10:43:40;;;;;;;4.50;0.40;;;;;;;29.90;26.48;100512.77;107792;1271;107751;-71
2022/09/01 10:46:45;;;;;;;1.70;0.30;;;;;;;29.97;26.37;100504.23;107769;1270;107856;-74
2022/09/01 10:49:49;;;;;;;1.00;0.40;;;;;;;29.58;26.38;100509.48;106851;1277;96233;-71
2022/09/01 10:52:57;;;;;;;3.20;0.50;;;;;;;29.09;26.01;100511.67;105510;1279;138001;-71
2022/09/01 10:55:35;;;;;;;2.70;0.50;;;;;;;28.97;26.50;100507.55;105345;1284;112960;-72
2022/09/01 10:58:40;;;;;;;1.60;0.50;;;;;;;28.79;26.48;100510.28;105591;1282;109154;-71
2022/09/01 11:02:12;;;;;;;1.20;0.40;;;;;;;28.66;26.60;100506.18;105487;1281;107841;-72
2022/09/01 11:05:15;;;;;;;1.40;0.60;;;;;;;28.60;26.41;100501.57;105273;1281;137947;-72
2022/09/01 11:07:48;;;;;;;3.10;0.30;;;;;;;28.48;26.29;100502.95;105610;1281;97893;-71
2022/09/01 11:10:53;;;;;;;6.30;0.80;;;;;;;28.33;26.96;100502.63;105590;1281;138668;-70
2022/09/01 11:13:41;;;;;;;3.40;0.60;;;;;;;28.12;26.59;100504.20;105588;1281;108270;-70
2022/09/01 11:16:38;;;;;;;2.90;0.60;;;;;;;28.01;26.67;100504.22;105479;1281;138374;-69
2022/09/01 11:19:32;;;;;;;2.40;0.60;;;;;;;28.11;27.17;100499.63;106837;1281;96543;-71
2022/09/01 11:22:15;;;;;;;1.10;0.40;;;;;;;28.17;27.25;100499.67;105761;1281;97751;-73
2022/09/01 11:25:32;;;;;;;0.90;0.50;;;;;;;28.13;26.92;100499.84;105826;1275;113229;-70
2022/09/01 11:28:40;;;;;;;1.10;0.50;;;;;;;27.77;26.77;100499.58;106038;1274;108867;-70
2022/09/01 11:31:40;;;;;;;1.90;0.40;;;;;;;27.76;26.96;100498.70;106376;1270;108854;-70
2022/09/01 11:34:16;;;;;;;0.70;0.40;;;;;;;27.51;26.46;100505.85;106213;1270;99174;-74
2022/09/01 11:36:54;;;;;;;2.00;0.50;;;;;;;27.15;27.06;100510.55;106286;1270;98221;-71
2022/09/01 11:39:48;;;;;;;1.90;0.40;;;;;;;27.18;27.23;100506.25;106295;1270;114592;-71
2022/09/01 11:42:26;;;;;;;2.10;0.40;;;;;;;27.19;27.20;100506.23;106021;1271;138306;-71
2022/09/01 11:45:03;;;;;;;1.00;0.60;;;;;;;26.88;27.16;100506.67;106256;1270;109139;-71
2022/09/01 11:47:40;;;;;;;2.20;0.70;;;;;;;26.61;27.75;100510.68;106135;1270;138064;-72
2022/09/01 11:50:21;;;;;;;1.00;0.60;;;;;;;26.48;28.20;100512.23;106094;1271;97887;-71
2022/09/01 11:52:59;;;;;;;2.00;0.50;;;;;;;26.49;27.93;100503.59;106017;1271;137788;-72
2022/09/01 11:55:38;;;;;;;1.30;0.40;;;;;;;26.36;27.69;100515.59;106271;1270;107878;-72
2022/09/01 11:58:14;;;;;;;1.40;0.30;;;;;;;26.11;27.95;100516.27;106163;1271;107496;-72
2022/09/01 12:00:48;;;;;;;3.20;0.70;;;;;;;25.93;27.90;100514.05;106314;1270;97816;-71
2022/09/01 12:03:25;;;;;;;2.20;0.70;;;;;;;25.92;27.85;100510.05;106332;1270;99028;-72